Madawaska, ME

12:06 AM EST on February 12, 2016 (GMT -0500)
W1AYX | | Change Station
CLOSE
Current Station
Personal Weather Station
Location: Madawaska, ME
Elevation: 545 ft
Nearby Weather Stations
Active Advisory: Wind Chill Advisory

Elev 545 ft 47.35 °N, 68.28 °W | Updated 33 seconds ago

Haze
Haze
1.4 °F
Feels Like 1 °F
N
2.9
Wind Variable Wind from WSW
Gusts 4.9 mph

Today
High -- | Low -- °F
--% Chance of Precip.
Yesterday
High -- | Low -- °F
Precip. -- in
Pressure 29.75 in
Visibility 5.0 miles
Clouds Scattered Clouds 2300 ft
Overcast 10000 ft
Windchill 1 °F
Dew Point -12 °F
Humidity 52%
Rainfall 0.00 in
Snow Depth Not available.
6:43 AM 4:51 PM
Waxing Crescent, 17% visible
METAR KFVE 120453Z AUTO 32009G18KT 5SM HZ SCT023 OVC100 M18/M22 A2969 RMK AO2 UPB39E49SNE27 SLP075 P0000 T11781222 410781178
Pressure 29.75 in
Visibility 5.0 miles
Clouds Scattered Clouds 2300 ft
Overcast 10000 ft
Windchill 1 °F
Dew Point -12 °F
Humidity 52%
Rainfall 0.00 in
Snow Depth Not available.
6:43 AM 4:51 PM
Waxing Crescent, 17% visible
METAR KFVE 120453Z AUTO 32009G18KT 5SM HZ SCT023 OVC100 M18/M22 A2969 RMK AO2 UPB39E49SNE27 SLP075 P0000 T11781222 410781178

10-Day Weather Forecast

Almanac

Astronomy

Feb. 12, 2016 Rise Set
Actual Time
Civil Twilight
Nautical Twilight
Astronomical Twilight
Moon
Length of Visible Light
Length of Day
Tomorrow will be .
, % of the Moon is Illuminated

Today's Extremes

State Highs State Lows

Community

WunderPhotos

Upload Photos

1,892,265 photos uploaded!

WunderBlog® & News

Nearby

Air Quality

  Air Quality AQ Index Pollutant
Not available.

Snow Depth

Station Depth Elevation

Earthquake Activity

City Distance Mag. Time & Date
Minimum magnitude displayed is 2.5.

Coastal Water Temperatures

Place Temperature

Stations

Nearby Weather Stations

Station Location Temp. Windchill Dew Point Humidity Wind Precip. Elev Updated Type
                   

Watches & Warnings

Wind Chill Advisory
Issued: 10:40 PM EST Feb. 11, 2016 – National Weather Service

... Wind Chill Advisory remains in effect from 3 am to 9 am EST
Friday...

* locations... far north and northwest Maine.

* Hazard types... low wind chills.

* Wind chill readings... 20 to 30 below zero.

* Timing... overnight into Friday morning.

* Impacts... low impact. If outdoors... be sure to dress
appropriately.

* Winds... west 10 to 20 mph.

* Temperatures... 5 below to 12 below zero.

Precautionary/preparedness actions...

A Wind Chill Advisory means that very cold air and wind will
combine to generate low wind chills. This will result in frost
bite and lead to hypothermia if precautions are not taken. If you
must venture outdoors... make sure you wear a hat and gloves.